createdAt,value
2018-10-19T00:00:43.485Z,22.37
2018-10-19T00:01:30.743Z,21.93
2018-10-19T00:02:17.643Z,21.53
2018-10-19T00:03:04.884Z,23.03
2018-10-19T00:03:51.894Z,21.83
2018-10-19T00:04:38.948Z,23.63
2018-10-19T00:05:26.088Z,24.03
2018-10-19T00:06:13.223Z,23.83
2018-10-19T00:07:00.577Z,21.50
2018-10-19T00:07:47.524Z,22.73
2018-10-19T00:08:34.656Z,21.27
2018-10-19T00:09:22.148Z,22.00
2018-10-19T00:10:09.981Z,22.30
2018-10-19T00:10:57.389Z,25.80
2018-10-19T00:11:44.892Z,20.20
2018-10-19T00:12:32.042Z,24.60
2018-10-19T00:13:19.272Z,21.53
2018-10-19T00:14:06.560Z,22.37
2018-10-19T00:14:53.780Z,25.47
2018-10-19T00:15:41.381Z,23.77
2018-10-19T00:16:28.916Z,20.40
2018-10-19T00:17:19.632Z,21.70
2018-10-19T00:18:07.562Z,26.70
2018-10-19T00:18:54.765Z,21.70
2018-10-19T00:19:43.150Z,21.30
2018-10-19T00:20:30.498Z,22.13
2018-10-19T00:21:18.171Z,21.23
2018-10-19T00:22:06.031Z,22.73
2018-10-19T00:22:53.069Z,23.77
2018-10-19T00:23:40.201Z,22.10
2018-10-19T00:24:27.329Z,25.40
2018-10-19T00:25:17.468Z,20.63
2018-10-19T00:26:05.187Z,22.60
2018-10-19T00:26:52.439Z,22.60
2018-10-19T00:27:39.760Z,24.73
2018-10-19T00:28:27.533Z,22.47
2018-10-19T00:29:14.768Z,23.57
2018-10-19T00:30:01.710Z,19.97
2018-10-19T00:30:48.693Z,21.07
2018-10-19T00:31:35.753Z,21.70
2018-10-19T00:32:23.175Z,19.17
2018-10-19T00:33:10.488Z,23.03
2018-10-19T00:33:57.979Z,21.57
2018-10-19T00:34:45.180Z,21.60
2018-10-19T00:35:32.695Z,20.00
2018-10-19T00:36:19.730Z,21.33
2018-10-19T00:37:09.790Z,19.40
2018-10-19T00:37:56.762Z,21.17
2018-10-19T00:38:43.886Z,21.87
2018-10-19T00:39:31.300Z,21.67
2018-10-19T00:40:18.291Z,21.37
2018-10-19T00:41:05.620Z,21.27
2018-10-19T00:41:52.589Z,20.13
2018-10-19T00:42:40.086Z,20.73
2018-10-19T00:43:27.091Z,22.43
2018-10-19T00:44:14.226Z,21.37
2018-10-19T00:45:01.279Z,20.73
2018-10-19T00:45:48.424Z,20.03
2018-10-19T00:46:35.799Z,21.67
2018-10-19T00:47:22.867Z,23.13
2018-10-19T00:48:20.363Z,18.63
2018-10-19T00:49:07.698Z,21.37
2018-10-19T00:49:54.799Z,18.60
2018-10-19T00:50:41.944Z,20.70
2018-10-19T00:51:29.090Z,18.33
2018-10-19T00:52:16.460Z,20.90
2018-10-19T00:53:03.484Z,20.87
2018-10-19T00:53:50.438Z,19.67
2018-10-19T00:54:37.402Z,20.23
2018-10-19T00:55:24.439Z,19.63
2018-10-19T00:56:11.518Z,20.67
2018-10-19T00:56:58.871Z,20.43
2018-10-19T00:57:45.950Z,18.47
2018-10-19T00:58:33.061Z,20.40
2018-10-19T00:59:20.090Z,19.60
2018-10-19T01:00:07.559Z,18.50
2018-10-19T01:00:54.574Z,19.40
2018-10-19T01:01:41.706Z,20.47
2018-10-19T01:02:28.709Z,18.23
2018-10-19T01:03:16.092Z,21.30
2018-10-19T01:04:02.907Z,19.60
2018-10-19T01:04:49.974Z,18.40
2018-10-19T01:05:38.038Z,18.10
2018-10-19T01:06:25.048Z,20.47
2018-10-19T01:07:12.334Z,18.23
2018-10-19T01:07:59.526Z,17.43
2018-10-19T01:08:46.645Z,19.13
2018-10-19T01:09:34.017Z,19.67
2018-10-19T01:10:24.700Z,20.07
2018-10-19T01:11:12.051Z,16.83
2018-10-19T01:11:59.089Z,18.27
2018-10-19T01:12:46.145Z,17.07
2018-10-19T01:13:33.100Z,17.30
2018-10-19T01:14:20.496Z,19.67
2018-10-19T01:15:07.560Z,17.53
2018-10-19T01:15:54.350Z,17.80
2018-10-19T01:16:41.634Z,19.10
2018-10-19T01:17:28.560Z,19.90
2018-10-19T01:18:15.850Z,17.07
2018-10-19T01:19:03.477Z,19.33
2018-10-19T01:19:50.992Z,20.50
2018-10-19T01:20:38.039Z,18.50
2018-10-19T01:21:25.495Z,17.40
2018-10-19T01:22:12.805Z,18.07
2018-10-19T01:23:00.017Z,18.67
2018-10-19T01:23:47.091Z,16.37
2018-10-19T01:24:34.072Z,18.90
2018-10-19T01:25:21.001Z,18.10
2018-10-19T01:26:08.070Z,19.47
2018-10-19T01:26:55.293Z,17.13
2018-10-19T01:27:42.436Z,17.47
2018-10-19T01:28:29.532Z,16.30
2018-10-19T01:29:16.454Z,16.03
2018-10-19T01:30:03.413Z,17.23
2018-10-19T01:30:50.423Z,15.90
2018-10-19T01:31:39.342Z,19.00
2018-10-19T01:32:26.410Z,16.03
2018-10-19T01:33:13.655Z,17.37
2018-10-19T01:34:00.618Z,17.63
2018-10-19T01:34:47.873Z,16.77
2018-10-19T01:35:35.299Z,16.23
2018-10-19T01:36:41.678Z,15.70
2018-10-19T01:37:29.106Z,18.47
2018-10-19T01:38:16.162Z,18.07
2018-10-19T01:39:03.209Z,14.80
2018-10-19T01:39:50.401Z,15.80
2018-10-19T01:40:37.459Z,19.13
2018-10-19T01:41:24.596Z,18.57
2018-10-19T01:42:11.563Z,16.30
2018-10-19T01:42:58.681Z,18.97
2018-10-19T01:43:45.742Z,17.43
2018-10-19T01:44:32.848Z,15.63
2018-10-19T01:45:20.049Z,15.77
2018-10-19T01:46:07.095Z,18.83
2018-10-19T01:46:54.763Z,17.13
2018-10-19T01:47:42.400Z,16.40
2018-10-19T01:48:29.745Z,18.80
2018-10-19T01:49:17.788Z,18.43
2018-10-19T01:50:05.257Z,17.27
2018-10-19T01:50:52.386Z,16.00
2018-10-19T01:51:39.486Z,17.47
2018-10-19T01:52:27.005Z,18.80
2018-10-19T01:53:14.040Z,15.13
2018-10-19T01:54:01.465Z,16.63
2018-10-19T01:54:48.775Z,18.00
2018-10-19T01:55:35.786Z,17.80
2018-10-19T01:56:22.877Z,18.90
2018-10-19T01:57:09.866Z,17.17
2018-10-19T01:57:57.058Z,19.60
2018-10-19T01:58:44.116Z,20.83
2018-10-19T01:59:31.130Z,17.27
2018-10-19T02:00:18.114Z,15.80
2018-10-19T02:01:05.200Z,18.00
2018-10-19T02:01:52.470Z,19.17
2018-10-19T02:02:39.437Z,20.93
2018-10-19T02:03:26.944Z,19.93
2018-10-19T02:04:13.948Z,18.87
2018-10-19T02:05:01.039Z,16.80
2018-10-19T02:05:48.033Z,18.33
2018-10-19T02:07:22.515Z,16.80
2018-10-19T02:08:10.847Z,17.47
2018-10-19T02:08:58.343Z,20.07
2018-10-19T02:09:45.927Z,19.57
2018-10-19T02:10:33.419Z,18.60
2018-10-19T02:11:20.493Z,21.33
2018-10-19T02:12:07.806Z,17.40
2018-10-19T02:12:55.188Z,18.90
2018-10-19T02:13:42.467Z,20.10
2018-10-19T02:14:29.956Z,19.10
2018-10-19T02:15:16.961Z,19.47
2018-10-19T02:16:03.813Z,21.47
2018-10-19T02:16:51.305Z,18.60
2018-10-19T02:17:38.641Z,17.67
2018-10-19T02:18:25.679Z,20.13
2018-10-19T02:19:13.063Z,19.33
2018-10-19T02:19:59.990Z,18.93
2018-10-19T02:20:47.016Z,18.40
2018-10-19T02:21:34.196Z,19.27
2018-10-19T02:22:21.640Z,20.73
2018-10-19T02:23:08.693Z,19.60
2018-10-19T02:23:56.077Z,18.97
2018-10-19T02:24:43.028Z,19.13
2018-10-19T02:25:30.041Z,22.13
2018-10-19T02:26:17.010Z,19.13
2018-10-19T02:27:04.367Z,20.50
2018-10-19T02:27:51.791Z,20.20
2018-10-19T02:28:38.785Z,20.90
2018-10-19T02:29:26.024Z,22.37
2018-10-19T02:30:13.284Z,19.27
2018-10-19T02:31:00.442Z,21.70
2018-10-19T02:31:48.022Z,20.73
2018-10-19T02:32:35.511Z,19.13
2018-10-19T02:33:22.855Z,20.63
2018-10-19T02:34:10.148Z,21.93
2018-10-19T02:34:57.204Z,20.77
2018-10-19T02:35:44.308Z,20.23
2018-10-19T02:36:31.678Z,22.60
2018-10-19T02:37:19.006Z,22.13
2018-10-19T02:38:06.354Z,22.00
2018-10-19T02:38:53.703Z,20.63
2018-10-19T02:39:40.882Z,22.17
2018-10-19T02:40:28.965Z,20.87
2018-10-19T02:41:16.296Z,20.40
2018-10-19T02:42:03.391Z,24.30
2018-10-19T02:42:50.367Z,24.50
2018-10-19T02:43:37.481Z,22.33
2018-10-19T02:44:24.694Z,23.87
2018-10-19T02:45:11.775Z,22.13
2018-10-19T02:45:59.127Z,23.57
2018-10-19T02:46:46.087Z,23.20
2018-10-19T02:47:33.134Z,21.17
2018-10-19T02:48:20.519Z,22.40
2018-10-19T02:49:07.775Z,20.60
2018-10-19T02:49:54.939Z,21.67
2018-10-19T02:50:42.001Z,20.17
2018-10-19T02:51:29.118Z,21.60
2018-10-19T02:52:16.252Z,23.47
2018-10-19T02:53:03.423Z,20.80
2018-10-19T02:53:50.377Z,21.23
2018-10-19T02:54:37.776Z,21.90
2018-10-19T02:55:24.786Z,21.17
2018-10-19T02:56:12.002Z,20.57
2018-10-19T02:56:59.148Z,21.03
2018-10-19T02:57:46.334Z,22.23
2018-10-19T02:58:33.687Z,21.27
2018-10-19T02:59:21.025Z,21.13
2018-10-19T03:00:09.917Z,23.47
2018-10-19T03:00:57.154Z,23.90
2018-10-19T03:01:44.158Z,21.37
2018-10-19T03:02:31.216Z,20.30
2018-10-19T03:03:18.165Z,21.23
2018-10-19T03:04:05.368Z,21.50
2018-10-19T03:04:52.893Z,21.67
2018-10-19T03:05:39.891Z,22.00
2018-10-19T03:06:26.894Z,19.17
2018-10-19T03:07:13.899Z,23.13
2018-10-19T03:08:01.041Z,20.20
2018-10-19T03:08:48.251Z,23.10
2018-10-19T03:09:35.263Z,22.20
2018-10-19T03:10:22.260Z,20.27
2018-10-19T03:11:09.439Z,24.67
2018-10-19T03:11:56.364Z,21.90
2018-10-19T03:12:43.590Z,19.87
2018-10-19T03:13:30.708Z,19.90
2018-10-19T03:14:17.947Z,21.43
2018-10-19T03:15:06.894Z,24.80
2018-10-19T03:15:53.907Z,19.77
2018-10-19T03:17:24.017Z,21.10
2018-10-19T03:18:11.487Z,20.57
2018-10-19T03:18:58.722Z,20.27
2018-10-19T03:19:45.701Z,23.70
2018-10-19T03:20:32.862Z,19.60
2018-10-19T03:21:20.042Z,20.40
2018-10-19T03:22:07.146Z,21.50
2018-10-19T03:22:54.677Z,19.43
2018-10-19T03:23:41.652Z,22.13
2018-10-19T03:24:28.767Z,20.07
2018-10-19T03:25:15.798Z,18.40
2018-10-19T03:26:02.909Z,19.27
2018-10-19T03:26:50.332Z,21.60
2018-10-19T03:27:37.525Z,20.33
2018-10-19T03:28:25.005Z,20.03
2018-10-19T03:29:12.204Z,21.10
2018-10-19T03:29:59.139Z,21.87
2018-10-19T03:30:46.118Z,18.93
2018-10-19T03:31:33.220Z,19.90
2018-10-19T03:32:20.146Z,24.33
2018-10-19T03:33:07.349Z,20.13
2018-10-19T03:33:54.207Z,20.17
2018-10-19T03:34:41.356Z,20.83
2018-10-19T03:35:28.414Z,19.00
2018-10-19T03:36:15.465Z,19.70
2018-10-19T03:37:02.586Z,20.50
2018-10-19T03:37:49.686Z,21.03
2018-10-19T03:38:36.698Z,18.83
2018-10-19T03:39:23.778Z,18.87
2018-10-19T03:40:10.997Z,23.60
2018-10-19T03:40:58.183Z,19.90
2018-10-19T03:41:45.335Z,21.60
2018-10-19T03:42:32.611Z,19.47
2018-10-19T03:43:19.695Z,22.93
2018-10-19T03:44:07.020Z,19.90
2018-10-19T03:44:54.282Z,19.77
2018-10-19T03:45:41.548Z,19.90
2018-10-19T03:46:28.690Z,21.50
2018-10-19T03:47:15.896Z,24.13
2018-10-19T03:48:03.011Z,19.43
2018-10-19T03:48:50.427Z,20.60
2018-10-19T03:49:37.418Z,22.23
2018-10-19T03:50:24.390Z,21.63
2018-10-19T03:51:11.850Z,19.50
2018-10-19T03:51:59.158Z,20.43
2018-10-19T03:52:46.265Z,20.83
2018-10-19T03:53:33.283Z,19.30
2018-10-19T03:54:20.554Z,21.63
2018-10-19T03:55:08.090Z,20.37
2018-10-19T03:55:55.057Z,20.80
2018-10-19T03:56:42.129Z,20.50
2018-10-19T03:57:29.419Z,19.97
2018-10-19T03:58:16.404Z,18.73
2018-10-19T03:59:03.702Z,20.53
2018-10-19T03:59:50.748Z,20.47
2018-10-19T04:00:37.895Z,19.80
2018-10-19T04:01:25.100Z,21.47
2018-10-19T04:02:12.160Z,20.60
2018-10-19T04:02:59.120Z,23.03
2018-10-19T04:03:46.705Z,22.13
2018-10-19T04:04:33.662Z,19.57
2018-10-19T04:05:22.379Z,20.00
2018-10-19T04:06:09.814Z,22.37
2018-10-19T04:06:56.898Z,20.33
2018-10-19T04:07:44.347Z,20.10
2018-10-19T04:08:31.487Z,19.77
2018-10-19T04:09:18.832Z,20.20
2018-10-19T04:10:06.610Z,19.63
2018-10-19T04:10:53.962Z,20.23
2018-10-19T04:11:41.290Z,22.73
2018-10-19T04:12:28.691Z,20.47
2018-10-19T04:13:16.032Z,21.60
2018-10-19T04:14:03.252Z,24.40
2018-10-19T04:14:50.934Z,21.37
2018-10-19T04:15:38.107Z,20.77
2018-10-19T04:16:25.195Z,20.70
2018-10-19T04:17:12.465Z,19.83
2018-10-19T04:17:59.534Z,21.60
2018-10-19T04:18:49.245Z,21.43
2018-10-19T04:19:36.266Z,20.00
2018-10-19T04:20:23.382Z,19.70
2018-10-19T04:21:10.482Z,19.93
2018-10-19T04:21:57.487Z,20.47
2018-10-19T04:22:44.881Z,19.83
2018-10-19T04:23:31.967Z,20.30
2018-10-19T04:24:19.074Z,20.10
2018-10-19T04:25:06.025Z,19.90
2018-10-19T04:25:53.065Z,21.87
2018-10-19T04:26:40.274Z,20.83
2018-10-19T04:27:27.547Z,22.70
2018-10-19T04:28:14.587Z,20.63
2018-10-19T04:29:01.742Z,20.87
2018-10-19T04:29:49.268Z,19.90
2018-10-19T04:30:37.513Z,20.40
2018-10-19T04:31:24.549Z,22.00
2018-10-19T04:32:11.571Z,21.07
2018-10-19T04:32:58.806Z,20.13
2018-10-19T04:33:46.058Z,20.97
2018-10-19T04:34:33.088Z,21.93
2018-10-19T04:35:20.192Z,23.70
2018-10-19T04:36:07.542Z,21.03
2018-10-19T04:37:00.384Z,21.47
2018-10-19T04:37:47.767Z,22.00
2018-10-19T04:38:34.897Z,21.27
2018-10-19T04:39:21.890Z,26.53
2018-10-19T04:40:15.258Z,22.33
2018-10-19T04:41:02.072Z,20.93
2018-10-19T04:41:49.528Z,22.17
2018-10-19T04:42:36.740Z,19.77
2018-10-19T04:43:23.785Z,22.20
2018-10-19T04:44:11.219Z,21.23
2018-10-19T04:44:58.426Z,20.87
2018-10-19T04:45:45.455Z,22.00
2018-10-19T04:46:35.799Z,20.37
2018-10-19T04:47:23.253Z,20.73
2018-10-19T04:48:10.461Z,21.50
2018-10-19T04:48:57.900Z,19.83
2018-10-19T04:49:45.071Z,22.23
2018-10-19T04:50:32.283Z,20.97
2018-10-19T04:51:19.411Z,21.67
2018-10-19T04:52:06.520Z,20.43
2018-10-19T04:52:53.678Z,20.47
2018-10-19T04:53:41.101Z,20.00
2018-10-19T04:54:28.068Z,21.63
2018-10-19T04:55:22.528Z,21.83
2018-10-19T04:56:09.681Z,23.80
2018-10-19T04:56:56.837Z,20.57
2018-10-19T04:57:43.890Z,21.83
2018-10-19T04:58:30.899Z,23.83
2018-10-19T04:59:18.341Z,21.80
2018-10-19T05:00:06.278Z,23.43
2018-10-19T05:00:53.814Z,21.53
2018-10-19T05:01:40.957Z,22.10
2018-10-19T05:02:28.032Z,22.60
2018-10-19T05:03:15.208Z,20.43
2018-10-19T05:04:02.323Z,23.53
2018-10-19T05:04:49.573Z,21.73
2018-10-19T05:05:36.699Z,21.60
2018-10-19T05:06:23.967Z,20.87
2018-10-19T05:07:11.523Z,20.77
2018-10-19T05:07:58.766Z,21.30
2018-10-19T05:08:45.964Z,22.47
2018-10-19T05:09:33.030Z,21.67
2018-10-19T05:10:20.222Z,22.57
2018-10-19T05:11:07.567Z,23.63
2018-10-19T05:11:55.017Z,22.63
2018-10-19T05:12:42.520Z,22.17
2018-10-19T05:13:32.893Z,24.43
2018-10-19T05:14:20.092Z,23.80
2018-10-19T05:15:08.608Z,23.67
2018-10-19T05:15:55.932Z,27.37
2018-10-19T05:16:43.374Z,26.33
2018-10-19T05:17:30.550Z,22.93
2018-10-19T05:18:17.958Z,24.97
2018-10-19T05:19:05.516Z,21.90
2018-10-19T05:19:52.916Z,25.17
2018-10-19T05:20:39.953Z,23.90
2018-10-19T05:21:27.104Z,22.17
2018-10-19T05:22:14.524Z,25.87
2018-10-19T05:23:01.730Z,20.93
2018-10-19T05:23:48.800Z,22.97
2018-10-19T05:24:35.894Z,22.17
2018-10-19T05:25:25.166Z,21.23
2018-10-19T05:26:12.710Z,23.40
2018-10-19T05:26:59.775Z,23.60
2018-10-19T05:27:46.809Z,23.07
2018-10-19T05:28:33.907Z,23.93
2018-10-19T05:29:21.421Z,24.53
2018-10-19T05:30:10.903Z,28.40
2018-10-19T05:30:57.837Z,26.37
2018-10-19T05:31:44.845Z,24.57
2018-10-19T05:32:31.874Z,23.97
2018-10-19T05:33:19.355Z,22.67
2018-10-19T05:34:06.390Z,23.87
2018-10-19T05:34:53.600Z,25.17
2018-10-19T05:35:40.500Z,24.07
2018-10-19T05:36:27.687Z,24.17
2018-10-19T05:37:14.575Z,21.43
2018-10-19T05:38:01.876Z,24.90
2018-10-19T05:38:48.749Z,26.07
2018-10-19T05:39:35.770Z,25.30
2018-10-19T05:40:23.023Z,24.37
2018-10-19T05:41:10.217Z,24.13
2018-10-19T05:41:57.085Z,24.90
2018-10-19T05:42:44.135Z,28.63
2018-10-19T05:43:31.307Z,22.70
2018-10-19T05:44:18.234Z,28.47
2018-10-19T05:45:06.776Z,25.80
2018-10-19T05:45:53.895Z,24.87
2018-10-19T05:46:41.034Z,23.47
2018-10-19T05:47:28.114Z,26.63
2018-10-19T05:48:15.397Z,26.83
2018-10-19T05:49:02.590Z,26.93
2018-10-19T05:49:49.620Z,22.77
2018-10-19T05:50:36.686Z,24.87
2018-10-19T05:51:23.704Z,26.07
2018-10-19T05:52:10.745Z,24.73
2018-10-19T05:52:58.090Z,25.80
2018-10-19T05:53:45.134Z,27.97
2018-10-19T05:54:32.163Z,23.80
2018-10-19T05:55:19.225Z,23.93
2018-10-19T05:56:07.104Z,28.60
2018-10-19T05:56:54.548Z,26.63
2018-10-19T05:57:41.680Z,27.80
2018-10-19T05:58:28.982Z,28.53
2018-10-19T05:59:16.101Z,24.50
2018-10-19T06:00:03.204Z,28.53
2018-10-19T06:00:50.505Z,23.57
2018-10-19T06:01:37.708Z,26.77
2018-10-19T06:02:24.961Z,26.23
2018-10-19T06:03:12.001Z,27.43
2018-10-19T06:03:59.269Z,27.33
2018-10-19T06:04:46.271Z,29.30
2018-10-19T06:05:33.319Z,26.17
2018-10-19T06:06:20.595Z,26.03
2018-10-19T06:07:07.595Z,28.77
2018-10-19T06:07:54.771Z,24.73
2018-10-19T06:08:42.061Z,27.57
2018-10-19T06:09:29.012Z,29.40
2018-10-19T06:10:16.074Z,26.20
2018-10-19T06:11:03.148Z,30.60
2018-10-19T06:11:50.166Z,26.83
2018-10-19T06:12:37.323Z,28.77
2018-10-19T06:13:24.336Z,27.03
2018-10-19T06:14:11.717Z,24.80
2018-10-19T06:14:58.662Z,24.60
2018-10-19T06:15:45.608Z,27.23
2018-10-19T06:16:32.909Z,27.87
2018-10-19T06:17:19.960Z,30.17
2018-10-19T06:18:07.044Z,30.13
2018-10-19T06:18:54.103Z,28.10
2018-10-19T06:19:41.098Z,27.87
2018-10-19T06:20:28.133Z,27.63
2018-10-19T06:21:15.255Z,25.93
2018-10-19T06:22:02.136Z,26.70
2018-10-19T06:22:49.060Z,28.17
2018-10-19T06:23:36.061Z,26.87
2018-10-19T06:24:23.028Z,27.07
2018-10-19T06:25:10.194Z,30.20
2018-10-19T06:25:57.692Z,26.83
2018-10-19T06:26:44.789Z,26.23
2018-10-19T06:27:31.828Z,30.17
2018-10-19T06:28:18.894Z,28.23
2018-10-19T06:29:06.130Z,26.43
2018-10-19T06:29:53.251Z,31.77
2018-10-19T06:30:40.398Z,26.20
2018-10-19T06:31:27.502Z,29.33
2018-10-19T06:32:14.546Z,27.43
2018-10-19T06:33:01.549Z,29.30
2018-10-19T06:33:48.699Z,27.07
2018-10-19T06:34:35.686Z,29.20
2018-10-19T06:35:22.815Z,29.03
2018-10-19T06:36:10.070Z,27.23
2018-10-19T06:36:57.398Z,30.57
2018-10-19T06:37:44.347Z,25.60
2018-10-19T06:38:31.411Z,27.77
2018-10-19T06:39:18.516Z,28.87
2018-10-19T06:40:05.520Z,29.53
2018-10-19T06:40:52.729Z,30.37
2018-10-19T06:41:40.226Z,28.33
2018-10-19T06:42:27.649Z,26.07
2018-10-19T06:43:15.005Z,27.17
2018-10-19T06:44:02.338Z,30.53
2018-10-19T06:44:49.415Z,30.23
2018-10-19T06:45:36.786Z,34.73
2018-10-19T06:46:24.049Z,27.07
2018-10-19T06:47:11.388Z,27.73
2018-10-19T06:47:58.754Z,29.20
2018-10-19T06:48:45.962Z,30.33
2018-10-19T06:49:33.027Z,28.23
2018-10-19T06:50:20.689Z,26.20
2018-10-19T06:51:07.951Z,26.17
2018-10-19T06:51:54.961Z,28.60
2018-10-19T06:52:41.930Z,27.63
2018-10-19T06:53:28.971Z,26.67
2018-10-19T06:54:16.076Z,29.07
2018-10-19T06:55:03.135Z,26.17
2018-10-19T06:55:50.507Z,28.03
2018-10-19T06:56:37.486Z,27.73
2018-10-19T06:57:24.535Z,31.30
2018-10-19T06:58:11.783Z,26.87
2018-10-19T06:58:59.198Z,30.70
2018-10-19T06:59:46.270Z,28.03
2018-10-19T07:00:33.686Z,27.43
2018-10-19T07:01:20.720Z,26.43
2018-10-19T07:02:08.307Z,27.17
2018-10-19T07:02:55.340Z,25.67
2018-10-19T07:03:42.853Z,27.23
2018-10-19T07:04:29.958Z,26.33
2018-10-19T07:05:17.027Z,28.50
2018-10-19T07:06:04.075Z,28.70
2018-10-19T07:06:51.126Z,27.53
2018-10-19T07:07:38.545Z,28.60
2018-10-19T07:08:26.038Z,28.80
2018-10-19T07:09:13.163Z,28.27
2018-10-19T07:10:00.801Z,27.70
2018-10-19T07:10:48.506Z,27.13
2018-10-19T07:11:35.769Z,28.63
2018-10-19T07:12:22.911Z,29.90
2018-10-19T07:13:10.014Z,27.43
2018-10-19T07:13:57.568Z,28.97
2018-10-19T07:14:44.555Z,27.00
2018-10-19T07:15:31.601Z,28.63
2018-10-19T07:16:18.750Z,27.30
2018-10-19T07:17:05.959Z,28.10
2018-10-19T07:17:53.000Z,27.43
2018-10-19T07:18:40.505Z,27.40
2018-10-19T07:19:27.762Z,27.37
2018-10-19T07:20:18.530Z,28.87
2018-10-19T07:21:05.773Z,25.67
2018-10-19T07:21:53.217Z,30.07
2018-10-19T07:22:40.820Z,29.17
2018-10-19T07:23:28.093Z,27.57
2018-10-19T07:24:15.294Z,28.03
2018-10-19T07:25:02.946Z,27.37
2018-10-19T07:25:50.212Z,26.77
2018-10-19T07:26:37.337Z,29.83
2018-10-19T07:27:24.226Z,27.30
2018-10-19T07:28:11.431Z,26.67
2018-10-19T07:28:58.520Z,29.33
2018-10-19T07:29:46.088Z,30.43
2018-10-19T07:30:33.835Z,28.93
2018-10-19T07:31:21.496Z,28.17
2018-10-19T07:32:08.681Z,29.17
2018-10-19T07:32:55.802Z,28.93
2018-10-19T07:33:42.948Z,32.53
2018-10-19T07:34:30.557Z,28.57
2018-10-19T07:35:17.784Z,27.33
2018-10-19T07:36:05.106Z,29.33
2018-10-19T07:36:52.423Z,31.63
2018-10-19T07:37:39.422Z,29.43
2018-10-19T07:38:26.438Z,27.90
2018-10-19T07:39:14.018Z,29.27
2018-10-19T07:40:01.762Z,29.90
2018-10-19T07:40:48.835Z,29.33
2018-10-19T07:41:36.075Z,27.67
2018-10-19T07:42:23.348Z,28.33
2018-10-19T07:43:10.122Z,26.47
2018-10-19T07:44:00.311Z,28.00
2018-10-19T07:44:47.757Z,28.27
2018-10-19T07:45:34.877Z,27.27
2018-10-19T07:46:21.698Z,28.77
2018-10-19T07:47:09.068Z,26.63
2018-10-19T07:47:56.188Z,27.90
2018-10-19T07:48:43.015Z,26.87
2018-10-19T07:49:30.427Z,26.40
2018-10-19T07:50:17.449Z,28.97
2018-10-19T07:51:04.467Z,27.83
2018-10-19T07:51:51.663Z,29.13
2018-10-19T07:52:39.257Z,26.83
2018-10-19T07:53:26.513Z,28.13
2018-10-19T07:54:13.789Z,29.53
2018-10-19T07:55:01.214Z,27.77
2018-10-19T07:55:48.439Z,27.47
2018-10-19T07:56:35.484Z,27.93
2018-10-19T07:57:22.768Z,28.13
2018-10-19T07:58:09.890Z,27.60
2018-10-19T07:58:56.985Z,27.90
2018-10-19T07:59:44.241Z,28.07
2018-10-19T08:00:31.705Z,28.20
2018-10-19T08:01:18.892Z,29.00
2018-10-19T08:02:06.263Z,28.23
2018-10-19T08:02:53.698Z,27.93
2018-10-19T08:03:40.652Z,28.07
2018-10-19T08:04:27.765Z,28.70
2018-10-19T08:05:18.701Z,28.40
2018-10-19T08:06:05.999Z,29.83
2018-10-19T08:06:53.975Z,29.00
2018-10-19T08:07:41.331Z,27.73
2018-10-19T08:08:28.782Z,28.37
2018-10-19T08:09:15.892Z,28.60
2018-10-19T08:10:05.689Z,27.50
2018-10-19T08:10:53.481Z,26.60
2018-10-19T08:11:40.988Z,30.50
2018-10-19T08:12:28.103Z,26.53
2018-10-19T08:13:15.200Z,27.37
2018-10-19T08:14:02.400Z,25.73
2018-10-19T08:14:49.508Z,28.97
2018-10-19T08:15:36.696Z,30.40
2018-10-19T08:16:23.878Z,26.13
2018-10-19T08:17:11.340Z,26.20
2018-10-19T08:17:59.021Z,25.87
2018-10-19T08:18:46.771Z,27.07
2018-10-19T08:19:34.102Z,26.00
2018-10-19T08:20:21.218Z,26.23
2018-10-19T08:21:08.398Z,30.13
2018-10-19T08:21:55.977Z,30.20
2018-10-19T08:22:43.323Z,27.13
2018-10-19T08:23:30.392Z,27.00
2018-10-19T08:24:17.479Z,26.67
2018-10-19T08:25:04.873Z,26.13
2018-10-19T08:25:52.247Z,27.30
2018-10-19T08:26:40.061Z,26.73
2018-10-19T08:27:27.324Z,26.67
2018-10-19T08:28:14.282Z,27.70
2018-10-19T08:29:01.414Z,26.53
2018-10-19T08:29:48.505Z,31.00
2018-10-19T08:30:35.531Z,27.83
2018-10-19T08:31:22.692Z,26.20
2018-10-19T08:32:09.999Z,29.63
2018-10-19T08:32:57.242Z,27.70
2018-10-19T08:33:44.317Z,26.87
2018-10-19T08:34:31.390Z,27.30
2018-10-19T08:35:18.749Z,26.57
2018-10-19T08:36:05.802Z,25.87
2018-10-19T08:36:52.827Z,27.37
2018-10-19T08:37:39.934Z,27.03
2018-10-19T08:38:27.132Z,26.50
2018-10-19T08:39:14.437Z,27.93
2018-10-19T08:40:01.502Z,27.87
2018-10-19T08:40:48.619Z,26.90
2018-10-19T08:41:35.772Z,29.17
2018-10-19T08:42:23.024Z,27.70
2018-10-19T08:43:09.959Z,30.80
2018-10-19T08:43:57.098Z,29.47
2018-10-19T08:44:44.471Z,26.27
2018-10-19T08:45:31.521Z,26.27
2018-10-19T08:46:36.079Z,30.57
2018-10-19T08:47:23.431Z,25.27
2018-10-19T08:48:10.764Z,28.17
2018-10-19T08:48:57.951Z,25.07
2018-10-19T08:49:45.174Z,27.53
2018-10-19T08:50:32.836Z,26.33
2018-10-19T08:51:19.978Z,25.33
2018-10-19T08:52:06.996Z,26.87
2018-10-19T08:52:54.089Z,27.97
2018-10-19T08:53:41.448Z,25.43
2018-10-19T08:54:28.274Z,26.53
2018-10-19T08:55:15.329Z,27.03
2018-10-19T08:56:02.333Z,27.47
2018-10-19T08:56:49.388Z,25.93
2018-10-19T08:57:36.569Z,26.40
2018-10-19T08:58:23.853Z,26.83
2018-10-19T08:59:11.227Z,26.67
2018-10-19T08:59:58.343Z,26.30
2018-10-19T09:00:45.821Z,26.00
2018-10-19T09:01:32.848Z,28.00
2018-10-19T09:02:20.296Z,28.43
2018-10-19T09:03:07.269Z,27.57
2018-10-19T09:03:54.262Z,29.27
2018-10-19T09:04:41.373Z,25.87
2018-10-19T09:05:28.395Z,27.77
2018-10-19T09:06:15.524Z,26.43
2018-10-19T09:07:02.543Z,27.50
2018-10-19T09:07:49.585Z,25.57
2018-10-19T09:08:36.687Z,25.63
2018-10-19T09:09:23.692Z,26.97
2018-10-19T09:10:10.795Z,25.50
2018-10-19T09:10:58.474Z,26.53
2018-10-19T09:11:45.857Z,28.70
2018-10-19T09:12:33.214Z,27.60
2018-10-19T09:13:20.171Z,25.00
2018-10-19T09:14:58.216Z,25.60
2018-10-19T09:15:45.504Z,30.70
2018-10-19T09:16:32.826Z,25.13
2018-10-19T09:17:20.076Z,27.97
2018-10-19T09:18:07.314Z,26.30
2018-10-19T09:18:54.537Z,25.63
2018-10-19T09:19:41.918Z,25.57
2018-10-19T09:20:29.135Z,25.80
2018-10-19T09:21:16.263Z,28.37
2018-10-19T09:22:03.508Z,26.53
2018-10-19T09:22:50.644Z,26.33
2018-10-19T09:23:37.787Z,28.07
2018-10-19T09:24:24.832Z,28.97
2018-10-19T09:25:11.938Z,26.33
2018-10-19T09:25:59.162Z,30.70
2018-10-19T09:26:46.132Z,26.80
2018-10-19T09:27:33.254Z,26.43
2018-10-19T09:28:20.258Z,26.87
2018-10-19T09:29:07.348Z,28.90
2018-10-19T09:29:54.810Z,29.83
2018-10-19T09:30:42.076Z,26.73
2018-10-19T09:31:29.516Z,25.30
2018-10-19T09:32:16.681Z,27.03
2018-10-19T09:33:03.989Z,25.17
2018-10-19T09:33:51.338Z,26.57
2018-10-19T09:34:39.298Z,26.23
2018-10-19T09:35:26.461Z,25.00
2018-10-19T09:36:13.591Z,23.67
2018-10-19T09:37:00.674Z,24.63
2018-10-19T09:37:47.674Z,26.03
2018-10-19T09:38:35.417Z,26.63
2018-10-19T09:39:22.889Z,25.77
2018-10-19T09:40:09.992Z,27.27
2018-10-19T09:40:57.069Z,25.43
2018-10-19T09:41:44.329Z,24.97
2018-10-19T09:42:31.450Z,25.77
2018-10-19T09:43:18.983Z,27.37
2018-10-19T09:44:06.275Z,22.83
2018-10-19T09:44:53.626Z,25.13
2018-10-19T09:45:40.685Z,24.93
2018-10-19T09:46:27.625Z,25.77
2018-10-19T09:47:14.644Z,25.03
2018-10-19T09:48:01.729Z,24.43
2018-10-19T09:48:49.003Z,23.87
2018-10-19T09:49:36.056Z,23.43
2018-10-19T09:50:23.217Z,24.03
2018-10-19T09:51:10.402Z,23.63
2018-10-19T09:51:58.164Z,23.53
2018-10-19T09:52:45.799Z,24.97
2018-10-19T09:53:32.983Z,26.83
2018-10-19T09:54:20.114Z,24.77
2018-10-19T09:55:08.521Z,24.63
2018-10-19T09:55:55.772Z,26.00
2018-10-19T09:56:42.798Z,24.60
2018-10-19T09:57:29.854Z,24.20
2018-10-19T09:58:17.081Z,25.43
2018-10-19T09:59:04.901Z,26.80
2018-10-19T09:59:52.213Z,23.83
2018-10-19T10:00:58.247Z,23.90
2018-10-19T10:01:45.374Z,24.10
2018-10-19T10:02:32.313Z,25.13
2018-10-19T10:03:19.626Z,25.03
2018-10-19T10:04:07.040Z,23.90
2018-10-19T10:04:54.111Z,25.80
2018-10-19T10:05:45.611Z,24.53
2018-10-19T10:06:32.822Z,25.17
2018-10-19T10:07:20.325Z,24.37
2018-10-19T10:08:08.702Z,25.33
2018-10-19T10:08:55.934Z,24.73
2018-10-19T10:09:43.493Z,24.27
2018-10-19T10:10:31.483Z,24.20
2018-10-19T10:11:19.018Z,29.10
2018-10-19T10:12:06.244Z,24.10
2018-10-19T10:12:53.284Z,25.23